Time;durP1;ratioP1;P1;durP2;ratioP2;P2;SDS_P1;SDS_P2;PMS_P1;PMS_P2;Temp;Humidity;BMP_temperature;BMP_pressure;BME280_temperature;BME280_humidity;BME280_pressure;Samples;Min_cycle;Max_cycle;Signal;HPM_P1;HPM_P2
2022/08/22 00:02:20;;;;;;;1.35;1.25;;;;;;;16.95;82.52;96690.39;1396737;102;25867;-75
2022/08/22 00:05:13;;;;;;;1.30;0.90;;;;;;;16.97;82.52;96680.58;1348558;105;25924;-74
2022/08/22 00:08:18;;;;;;;1.12;1.02;;;;;;;16.97;82.48;96679.22;1350117;106;27640;-74
2022/08/22 00:11:04;;;;;;;3.05;1.07;;;;;;;16.96;82.45;96680.30;1375348;101;25889;-74
2022/08/22 00:13:41;;;;;;;1.02;0.93;;;;;;;16.93;82.50;96678.92;1407699;101;25972;-74
2022/08/22 00:16:19;;;;;;;1.20;1.10;;;;;;;16.92;82.56;96674.02;1409464;101;26497;-74
2022/08/22 00:18:54;;;;;;;2.55;0.82;;;;;;;16.92;82.59;96669.92;1388148;103;25923;-75
2022/08/22 00:21:32;;;;;;;1.65;1.22;;;;;;;16.93;82.60;96677.56;1389555;101;28287;-74
2022/08/22 00:24:09;;;;;;;1.12;1.02;;;;;;;16.90;82.61;96672.67;1394190;101;25397;-74
2022/08/22 00:26:53;;;;;;;1.00;0.90;;;;;;;16.90;82.62;96667.22;1414535;98;25995;-74
2022/08/22 00:29:28;;;;;;;1.22;0.80;;;;;;;16.93;82.59;96666.66;1454507;98;25903;-74
2022/08/22 00:32:09;;;;;;;1.00;0.90;;;;;;;16.91;82.53;96665.56;1412320;101;26111;-74
2022/08/22 00:34:41;;;;;;;2.17;1.10;;;;;;;16.90;82.56;96663.92;1413005;100;27464;-74
2022/08/22 00:37:21;;;;;;;1.20;1.10;;;;;;;16.90;82.53;96657.11;1381370;103;25916;-74
2022/08/22 00:39:55;;;;;;;1.00;1.00;;;;;;;16.92;82.59;96654.11;1329696;106;25917;-74
2022/08/22 00:42:47;;;;;;;3.80;1.02;;;;;;;16.93;82.61;96651.12;1329861;106;25937;-74
2022/08/22 00:45:34;;;;;;;1.92;1.07;;;;;;;16.95;82.58;96650.03;1317711;108;25973;-74
2022/08/22 00:48:28;;;;;;;1.52;1.05;;;;;;;16.90;82.58;96653.59;1317524;108;27597;-74
2022/08/22 00:51:31;;;;;;;1.87;1.30;;;;;;;16.87;82.65;96653.58;1303162;108;25967;-74
2022/08/22 00:54:28;;;;;;;1.50;1.32;;;;;;;16.87;82.79;96659.03;1275504;111;25883;-74
2022/08/22 00:57:12;;;;;;;1.50;0.98;;;;;;;16.85;82.81;96674.01;1273711;111;26551;-74
2022/08/22 01:00:04;;;;;;;1.00;0.95;;;;;;;16.84;82.81;96667.73;1273791;112;25983;-74
2022/08/22 01:02:54;;;;;;;1.75;0.82;;;;;;;16.84;82.79;96665.02;1277610;112;29924;-74
2022/08/22 01:05:58;;;;;;;2.08;0.82;;;;;;;16.85;82.77;96655.75;1277707;112;25988;-74
2022/08/22 01:08:50;;;;;;;2.67;1.07;;;;;;;16.87;82.72;96666.39;1277511;112;25949;-74
2022/08/22 01:11:42;;;;;;;1.27;0.80;;;;;;;16.87;82.77;96661.76;1270837;112;25852;-74
2022/08/22 01:14:57;;;;;;;1.25;1.00;;;;;;;16.89;82.73;96662.85;1268757;113;25935;-74
2022/08/22 01:18:00;;;;;;;2.42;0.85;;;;;;;16.91;82.68;96662.83;1289585;109;28283;-74
2022/08/22 01:20:50;;;;;;;3.20;1.07;;;;;;;16.93;82.70;96662.56;1303396;110;25968;-74
2022/08/22 01:24:12;;;;;;;0.90;0.90;;;;;;;16.91;82.73;96666.10;1320020;108;25905;-74
2022/08/22 01:27:19;;;;;;;2.75;1.30;;;;;;;16.92;82.75;96665.02;1322058;108;25862;-74
2022/08/22 01:30:24;;;;;;;3.72;1.15;;;;;;;16.90;82.86;96669.38;1368942;104;26077;-74
2022/08/22 01:33:17;;;;;;;0.88;0.85;;;;;;;16.87;82.92;96672.66;1375259;104;27452;-74
2022/08/22 01:36:15;;;;;;;2.87;1.10;;;;;;;16.87;82.92;96674.02;1414890;98;25918;-74
2022/08/22 01:39:16;;;;;;;0.95;0.95;;;;;;;16.86;82.93;96671.02;1445026;98;26660;-74
2022/08/22 01:42:22;;;;;;;1.62;1.10;;;;;;;16.87;83.00;96667.20;1445034;99;25871;-74
2022/08/22 01:45:15;;;;;;;1.90;1.00;;;;;;;16.88;82.94;96666.12;1442704;99;25788;-74
2022/08/22 01:47:59;;;;;;;;;;;;;;;16.88;82.89;96668.84;1446905;99;28370;-74
2022/08/22 01:50:37;;;;;;;1.27;1.10;;;;;;;16.87;83.10;96675.93;1442663;99;26146;-74
2022/08/22 01:53:11;;;;;;;2.20;1.20;;;;;;;16.85;83.06;96679.46;1442604;99;25902;-74
2022/08/22 01:55:58;;;;;;;2.10;1.02;;;;;;;16.87;83.08;96675.38;1442748;99;26470;-74
2022/08/22 01:58:32;;;;;;;5.62;1.50;;;;;;;16.88;83.06;96667.48;1475841;95;25780;-74
2022/08/22 02:01:25;;;;;;;2.22;1.10;;;;;;;16.88;83.08;96666.66;1559362;89;28410;-74
2022/08/22 02:04:32;;;;;;;1.17;1.07;;;;;;;16.86;83.15;96668.30;1604526;89;25877;-74
2022/08/22 02:07:41;;;;;;;1.10;0.90;;;;;;;16.86;83.24;96664.75;1607598;89;25873;-74
2022/08/22 02:10:39;;;;;;;1.05;0.90;;;;;;;16.85;83.28;96668.02;1614200;86;25896;-74
2022/08/22 02:13:23;;;;;;;1.20;0.95;;;;;;;16.84;83.29;96665.55;1688193;81;25717;-74
2022/08/22 02:15:55;;;;;;;1.27;1.12;;;;;;;16.85;83.32;96668.02;1736593;81;27635;-74
2022/08/22 02:18:31;;;;;;;3.22;0.95;;;;;;;16.86;83.29;96665.56;1673590;85;25779;-74
2022/08/22 02:21:15;;;;;;;5.20;0.90;;;;;;;16.88;83.25;96667.48;1676191;84;25839;-74
2022/08/22 02:23:55;;;;;;;1.82;0.93;;;;;;;16.89;83.22;96666.94;1670580;85;26611;-74
2022/08/22 02:26:42;;;;;;;1.12;0.90;;;;;;;16.90;83.28;96669.38;1620395;87;25849;-73
2022/08/22 02:29:23;;;;;;;1.52;1.00;;;;;;;16.90;83.30;96665.28;1542294;92;27475;-74
2022/08/22 02:32:04;;;;;;;1.25;1.00;;;;;;;16.90;83.30;96665.28;1540255;92;26509;-74
2022/08/22 02:34:44;;;;;;;2.22;0.90;;;;;;;16.93;83.26;96674.84;1543362;92;25821;-74
2022/08/22 02:37:49;;;;;;;0.78;0.75;;;;;;;16.93;83.31;96671.56;1543332;92;25817;-74
2022/08/22 02:40:23;;;;;;;3.45;1.00;;;;;;;16.95;83.23;96677.30;1543485;92;25833;-75
2022/08/22 02:43:11;;;;;;;1.12;1.00;;;;;;;16.95;83.31;96670.48;1541437;92;27478;-74
2022/08/22 02:45:43;;;;;;;5.10;1.07;;;;;;;16.97;83.28;96676.48;1543392;92;25873;-74
2022/08/22 02:48:28;;;;;;;;;;;;;;;16.96;83.27;96672.94;1545738;92;25858;-74
2022/08/22 02:51:12;;;;;;;3.35;0.90;;;;;;;16.98;83.36;96675.41;1515170;94;25961;-74
2022/08/22 02:53:56;;;;;;;2.95;0.98;;;;;;;16.95;83.31;96672.66;1513984;94;25823;-74
2022/08/22 02:56:34;;;;;;;2.33;0.78;;;;;;;16.92;83.27;96671.29;1428618;100;28339;-74
2022/08/22 02:59:36;;;;;;;2.00;0.70;;;;;;;16.93;83.32;96678.38;1431041;98;25919;-74
2022/08/22 03:02:36;;;;;;;4.25;1.20;;;;;;;16.94;83.31;96672.39;1428770;100;25883;-75
2022/08/22 03:05:28;;;;;;;2.00;0.95;;;;;;;16.95;83.29;96674.03;1489757;96;25926;-75
2022/08/22 03:08:11;;;;;;;3.17;1.00;;;;;;;16.97;83.28;96675.12;1520829;93;25847;-74
2022/08/22 03:10:46;;;;;;;2.90;0.90;;;;;;;16.97;83.29;96673.77;1517292;93;27433;-74
2022/08/22 03:13:17;;;;;;;0.50;0.50;;;;;;;16.97;83.31;96671.04;1504837;95;25600;-74
2022/08/22 03:15:49;;;;;;;2.55;0.82;;;;;;;16.97;83.34;96665.58;1537112;92;25788;-75
2022/08/22 03:18:55;;;;;;;1.50;0.90;;;;;;;16.97;83.35;96665.58;1525438;92;25854;-74
2022/08/22 03:21:59;;;;;;;3.33;0.82;;;;;;;16.96;83.29;96665.31;1544767;92;25761;-74
2022/08/22 03:24:40;;;;;;;1.07;0.80;;;;;;;16.93;83.26;96664.75;1544558;92;27619;-75
2022/08/22 03:27:35;;;;;;;2.83;0.90;;;;;;;16.95;83.31;96669.12;1544928;92;25861;-74
2022/08/22 03:30:12;;;;;;;1.40;0.80;;;;;;;16.95;83.31;96667.21;1545128;92;25800;-74
2022/08/22 03:32:58;;;;;;;1.82;0.60;;;;;;;16.96;83.30;96670.22;1541226;92;26330;-74
2022/08/22 03:35:42;;;;;;;1.17;0.62;;;;;;;16.97;83.26;96674.58;1639513;87;25755;-75
2022/08/22 03:38:31;;;;;;;1.95;0.75;;;;;;;16.97;83.23;96671.86;1630278;87;27542;-74
2022/08/22 03:41:37;;;;;;;1.12;0.80;;;;;;;16.97;83.17;96675.95;1631189;87;25789;-74
2022/08/22 03:44:36;;;;;;;1.55;1.30;;;;;;;16.98;83.16;96675.41;1618120;88;25775;-73
2022/08/22 03:47:19;;;;;;;6.08;1.12;;;;;;;16.93;83.13;96671.56;1615249;87;25777;-73
2022/08/22 03:50:15;;;;;;;;;;;;;;;16.91;83.25;96678.37;1617498;88;25746;-74
2022/08/22 03:53:24;;;;;;;7.03;2.85;;;;;;;16.86;83.43;96684.65;1644499;87;27495;-73
2022/08/22 03:56:22;;;;;;;8.53;2.22;;;;;;;16.85;83.46;96684.91;1644766;87;25790;-73
2022/08/22 03:59:18;;;;;;;4.87;1.90;;;;;;;16.87;83.48;96688.19;1641404;87;26028;-72
2022/08/22 04:02:31;;;;;;;5.42;1.87;;;;;;;16.88;83.56;96692.56;1644909;87;26544;-73
2022/08/22 04:05:37;;;;;;;4.00;1.67;;;;;;;16.87;83.60;96686.29;1655415;86;25791;-73
2022/08/22 04:08:23;;;;;;;8.45;2.40;;;;;;;16.89;83.64;96678.66;1658602;86;27511;-73
2022/08/22 04:11:20;;;;;;;4.08;1.65;;;;;;;16.88;83.67;96672.94;1662980;84;25810;-73
2022/08/22 04:14:10;;;;;;;5.60;1.95;;;;;;;16.86;83.69;96679.20;1656874;85;25888;-72
2022/08/22 04:17:04;;;;;;;5.33;2.22;;;;;;;16.85;83.81;96680.28;1679633;85;25935;-73
2022/08/22 04:20:11;;;;;;;4.58;2.45;;;;;;;16.86;83.86;96683.83;1679503;85;25274;-73
2022/08/22 04:23:12;;;;;;;3.65;2.70;;;;;;;16.87;83.86;96690.38;1709912;83;28289;-73
2022/08/22 04:25:56;;;;;;;6.60;3.17;;;;;;;16.90;83.89;96681.64;1631281;87;26011;-72
2022/08/22 04:28:37;;;;;;;6.45;2.72;;;;;;;16.93;83.83;96687.11;1592727;88;25744;-73
2022/08/22 04:31:11;;;;;;;8.95;2.72;;;;;;;16.96;83.81;96688.48;1617854;87;25800;-73
2022/08/22 04:33:56;;;;;;;6.95;2.20;;;;;;;16.98;83.77;96685.77;1617798;88;25828;-73
2022/08/22 04:36:40;;;;;;;5.95;2.27;;;;;;;16.99;83.73;96687.41;1615964;88;27465;-73
2022/08/22 04:39:24;;;;;;;8.40;2.22;;;;;;;17.01;83.76;96692.59;1617547;88;25916;-72
2022/08/22 04:42:14;;;;;;;7.15;2.40;;;;;;;17.02;83.83;96691.51;1592794;89;25770;-72
2022/08/22 04:44:52;;;;;;;6.12;2.58;;;;;;;17.03;83.85;96690.39;1630053;87;26288;-72
2022/08/22 04:47:42;;;;;;;7.08;2.67;;;;;;;17.03;83.83;96687.13;1589786;90;25890;-72
2022/08/22 04:50:32;;;;;;;5.03;2.10;;;;;;;17.05;83.84;96684.95;1615213;88;27430;-73
2022/08/22 04:53:19;;;;;;;3.95;1.90;;;;;;;17.06;83.86;96692.59;1546015;91;25936;-72
2022/08/22 04:56:23;;;;;;;5.17;2.02;;;;;;;17.07;83.85;96694.23;1565988;91;25865;-73
2022/08/22 04:59:00;;;;;;;5.83;2.22;;;;;;;17.08;83.82;96695.33;1566246;91;26661;-72
2022/08/22 05:01:55;;;;;;;4.12;2.45;;;;;;;17.10;83.80;96700.52;1566061;91;26074;-72
2022/08/22 05:04:39;;;;;;;7.17;2.72;;;;;;;17.11;83.84;96696.70;1562903;91;27434;-72
2022/08/22 05:07:23;;;;;;;6.05;2.42;;;;;;;17.13;83.80;96691.80;1562632;91;25677;-72
2022/08/22 05:09:59;;;;;;;9.70;2.83;;;;;;;17.15;83.78;96695.87;1506839;95;25875;-72
2022/08/22 05:12:30;;;;;;;7.85;3.08;;;;;;;17.15;83.78;96693.69;1466479;97;26473;-72
2022/08/22 05:15:01;;;;;;;5.92;2.87;;;;;;;17.10;83.76;96693.16;1466838;97;25895;-73
2022/08/22 05:17:31;;;;;;;7.80;3.23;;;;;;;17.09;83.74;96696.97;1466777;97;27506;-73
2022/08/22 05:20:05;;;;;;;5.83;3.33;;;;;;;17.09;83.88;96702.96;1466615;97;43164;-73
2022/08/22 05:22:36;;;;;;;7.58;3.17;;;;;;;17.13;83.95;96710.89;1456186;97;26018;-72
2022/08/22 05:25:09;;;;;;;7.42;3.02;;;;;;;17.15;83.97;96722.32;1472911;97;25854;-73
2022/08/22 05:27:47;;;;;;;6.45;3.25;;;;;;;17.18;84.04;96723.16;1469173;97;25932;-73
2022/08/22 05:30:24;;;;;;;8.65;3.25;;;;;;;17.19;84.01;96726.16;1493534;93;28411;-73
2022/08/22 05:33:28;;;;;;;6.85;3.60;;;;;;;17.18;83.87;96734.06;1522273;93;26067;-72
2022/08/22 05:36:05;;;;;;;9.58;3.77;;;;;;;17.19;84.04;96726.16;1524494;93;26996;-73
2022/08/22 05:38:37;;;;;;;6.42;3.37;;;;;;;17.23;84.03;96733.54;1524505;93;25855;-72
2022/08/22 05:41:11;;;;;;;8.58;3.75;;;;;;;17.23;84.16;96735.45;1519101;93;25945;-73
2022/08/22 05:43:42;;;;;;;7.62;3.72;;;;;;;17.23;84.26;96735.45;1486524;96;27643;-73
2022/08/22 05:46:25;;;;;;;6.87;3.58;;;;;;;17.24;84.37;96728.36;1492155;94;25878;-73
2022/08/22 05:48:58;;;;;;;6.10;3.52;;;;;;;17.27;84.34;96731.07;1419996;98;25836;-73
2022/08/22 05:51:42;;;;;;;6.72;2.65;;;;;;;17.28;84.34;96729.98;1438900;99;26577;-72
2022/08/22 05:54:21;;;;;;;6.60;3.37;;;;;;;17.32;84.31;96731.09;1416300;101;25954;-72
2022/08/22 05:57:09;;;;;;;7.92;2.83;;;;;;;17.34;84.24;96738.47;1418238;101;27490;-74
2022/08/22 05:59:39;;;;;;;6.45;2.30;;;;;;;17.37;84.23;96739.84;1418048;101;25900;-74
2022/08/22 06:02:20;;;;;;;6.17;2.70;;;;;;;17.39;84.15;96741.19;1418111;101;25859;-73
2022/08/22 06:04:54;;;;;;;5.05;2.75;;;;;;;17.41;84.07;96742.28;1416821;101;26520;-73
2022/08/22 06:07:46;;;;;;;9.68;2.55;;;;;;;17.43;84.05;96745.02;1418850;99;25898;-73
2022/08/22 06:10:24;;;;;;;5.12;2.60;;;;;;;17.41;83.88;96748.56;1418644;101;28254;-73
2022/08/22 06:13:14;;;;;;;8.65;2.95;;;;;;;17.42;83.98;96747.47;1433361;99;26071;-72
2022/08/22 06:16:12;;;;;;;8.08;2.42;;;;;;;17.43;83.99;96749.11;1437031;99;25842;-74
2022/08/22 06:18:42;;;;;;;6.40;2.72;;;;;;;17.42;84.00;96748.84;1435998;99;25804;-74
2022/08/22 06:21:20;;;;;;;10.68;3.10;;;;;;;17.44;84.15;96756.21;1459016;98;25702;-73
2022/08/22 06:23:52;;;;;;;7.55;2.90;;;;;;;17.44;83.98;96753.48;1445033;99;27482;-73
2022/08/22 06:26:19;;;;;;;8.03;2.98;;;;;;;17.42;84.01;96750.20;1433007;99;25908;-73
2022/08/22 06:28:50;;;;;;;6.75;3.70;;;;;;;17.45;84.18;96753.76;1442854;99;26039;-73
2022/08/22 06:31:22;;;;;;;8.70;2.92;;;;;;;17.44;84.29;96757.58;1442784;99;25904;-73
2022/08/22 06:34:11;;;;;;;7.53;3.27;;;;;;;17.46;84.25;96761.40;1424096;100;33266;-73
2022/08/22 06:36:42;;;;;;;8.43;2.98;;;;;;;17.46;84.27;96764.95;1378885;104;28209;-74
2022/08/22 06:39:30;;;;;;;7.03;3.85;;;;;;;17.48;84.33;96772.87;1378753;104;25357;-73
2022/08/22 06:42:05;;;;;;;11.48;4.30;;;;;;;17.49;84.29;96765.78;1349703;106;26877;-73
2022/08/22 06:44:39;;;;;;;9.45;4.37;;;;;;;17.51;84.33;96759.48;1373012;103;25960;-74
2022/08/22 06:47:09;;;;;;;9.03;4.03;;;;;;;17.51;84.34;96762.21;1349679;104;25848;-74
2022/08/22 06:49:38;;;;;;;6.85;3.45;;;;;;;17.54;84.35;96760.86;1354204;105;27470;-74
2022/08/22 06:52:15;;;;;;;6.12;3.67;;;;;;;17.55;84.33;96752.95;1390284;103;26072;-74
2022/08/22 06:54:46;;;;;;;10.08;4.08;;;;;;;17.53;84.30;96751.84;1406019;101;25875;-74
2022/08/22 06:57:35;;;;;;;8.08;4.08;;;;;;;17.53;84.39;96753.21;1420197;101;25809;-73
2022/08/22 07:00:10;;;;;;;6.80;3.67;;;;;;;17.54;84.47;96756.77;1410054;101;25984;-74
2022/08/22 07:03:03;;;;;;;7.65;3.62;;;;;;;17.55;84.52;96751.58;1420250;101;28081;-74
2022/08/22 07:05:33;;;;;;;;;;;;;;;17.56;84.52;96749.95;1335022;107;25873;-75
2022/08/22 07:08:10;;;;;;;8.15;3.42;;;;;;;17.58;84.57;96746.41;1333316;107;26130;-74
2022/08/22 07:10:44;;;;;;;5.33;2.98;;;;;;;17.58;84.45;96746.41;1332274;107;25947;-75
2022/08/22 07:13:16;;;;;;;5.37;3.20;;;;;;;17.57;84.41;96752.95;1322134;107;25983;-73
2022/08/22 07:15:43;;;;;;;5.72;3.22;;;;;;;17.58;84.45;96749.14;1319965;108;27514;-75
2022/08/22 07:18:19;;;;;;;6.72;3.33;;;;;;;17.58;84.43;96758.69;1324455;104;26234;-75
2022/08/22 07:20:54;;;;;;;6.22;3.02;;;;;;;17.60;84.45;96757.06;1377280;103;25956;-74
2022/08/22 07:23:43;;;;;;;4.28;2.80;;;;;;;17.61;84.43;96743.14;1404066;100;25891;-74
2022/08/22 07:26:42;;;;;;;7.10;3.05;;;;;;;17.63;84.38;96749.70;1363612;105;25872;-74
2022/08/22 07:29:27;;;;;;;4.95;2.83;;;;;;;17.64;84.36;96750.80;1391428;103;27433;-74
2022/08/22 07:32:14;;;;;;;5.20;3.02;;;;;;;17.63;84.38;96749.16;1408034;101;25822;-76
2022/08/22 07:34:46;;;;;;;5.15;3.30;;;;;;;17.65;84.33;96748.89;1468472;97;25667;-74
2022/08/22 07:37:36;;;;;;;5.55;3.75;;;;;;;17.68;84.37;96754.35;1456320;98;25704;-75
2022/08/22 07:40:34;;;;;;;4.70;3.12;;;;;;;17.67;84.33;96757.62;1456066;98;25544;-75
2022/08/22 07:43:28;;;;;;;3.95;3.30;;;;;;;17.69;84.43;96749.17;1486512;94;27492;-73
2022/08/22 07:46:22;;;;;;;4.33;3.30;;;;;;;17.71;84.44;96749.72;1511474;94;25949;-73
2022/08/22 07:48:56;;;;;;;7.15;3.87;;;;;;;17.74;84.40;96751.92;1485402;95;25864;-74
2022/08/22 07:51:34;;;;;;;6.70;3.37;;;;;;;17.76;84.30;96750.53;1472835;97;26021;-75
2022/08/22 07:54:08;;;;;;;4.95;3.65;;;;;;;17.80;84.33;96748.08;1436115;99;25867;-75
2022/08/22 07:56:42;;;;;;;10.20;3.35;;;;;;;17.78;84.43;96752.98;1437323;99;27442;-76
2022/08/22 07:59:13;;;;;;;6.22;3.70;;;;;;;17.77;84.53;96756.81;1437427;98;25809;-75
2022/08/22 08:01:47;;;;;;;4.45;3.12;;;;;;;17.79;84.59;96760.91;1437035;98;25894;-74
2022/08/22 08:04:23;;;;;;;4.58;2.47;;;;;;;17.81;84.66;96752.45;1436787;98;25870;-74
2022/08/22 08:06:54;;;;;;;3.60;2.67;;;;;;;17.80;84.62;96765.82;1426049;98;25933;-74
2022/08/22 08:09:23;;;;;;;4.92;2.40;;;;;;;17.82;84.66;96773.20;1420103;100;27573;-75
2022/08/22 08:11:52;;;;;;;3.85;2.42;;;;;;;17.85;84.70;96773.48;1422364;98;25689;-74
2022/08/22 08:14:22;;;;;;;3.37;1.98;;;;;;;17.88;84.70;96761.17;1437833;99;25581;-75
2022/08/22 08:17:09;;;;;;;4.05;2.40;;;;;;;17.92;84.66;96772.66;1437783;99;25960;-75
2022/08/22 08:19:40;;;;;;;3.42;2.25;;;;;;;17.89;84.61;96769.09;1437457;98;26294;-75
2022/08/22 08:22:11;;;;;;;2.92;2.22;;;;;;;17.91;84.73;96764.19;1449097;99;28268;-75
2022/08/22 08:24:41;;;;;;;2.72;2.00;;;;;;;17.95;84.79;96765.28;1447613;97;25895;-76
2022/08/22 08:30:15;;;;;;;3.77;2.52;;;;;;;17.98;84.93;96772.94;1380559;103;25926;-75
2022/08/22 08:32:58;;;;;;;3.08;2.02;;;;;;;18.03;84.99;96766.64;1419363;101;25913;-74
2022/08/22 08:35:30;;;;;;;2.75;2.10;;;;;;;18.08;84.92;96765.28;1507675;95;27484;-75
2022/08/22 08:38:08;;;;;;;2.33;1.90;;;;;;;18.13;85.01;96767.98;1484122;96;25949;-75
2022/08/22 08:40:49;;;;;;;3.05;1.92;;;;;;;18.17;85.10;96773.19;1507711;95;25824;-74
2022/08/22 08:43:28;;;;;;;3.00;1.92;;;;;;;18.21;85.09;96768.00;1484632;96;26539;-75
2022/08/22 08:46:28;;;;;;;3.02;1.65;;;;;;;18.26;85.12;96771.53;1507896;95;25784;-75
2022/08/22 08:49:27;;;;;;;1.77;1.62;;;;;;;18.33;85.17;96763.06;1484526;96;27431;-73
2022/08/22 08:52:43;;;;;;;1.90;1.50;;;;;;;18.35;85.07;96761.66;1507506;95;25829;-73
2022/08/22 08:55:32;;;;;;;1.52;1.42;;;;;;;18.31;84.85;96759.78;1484511;96;25756;-74
2022/08/22 08:58:20;;;;;;;1.80;1.20;;;;;;;18.35;85.04;96763.03;1507852;95;25871;-74
2022/08/22 09:01:01;;;;;;;1.98;1.57;;;;;;;18.34;84.82;96769.63;1484370;96;25878;-74
2022/08/22 09:03:39;;;;;;;1.45;1.35;;;;;;;18.40;84.88;96766.86;1507622;95;28241;-73
2022/08/22 09:06:34;;;;;;;1.37;1.27;;;;;;;18.48;84.98;96767.66;1481709;96;25857;-74
2022/08/22 09:09:24;;;;;;;1.10;1.07;;;;;;;18.57;85.01;96764.64;1490953;95;26320;-74
2022/08/22 09:12:18;;;;;;;1.40;1.30;;;;;;;18.63;84.98;96767.66;1487427;95;25966;-73
2022/08/22 09:15:17;;;;;;;2.05;1.40;;;;;;;18.62;84.72;96769.56;1503511;95;25838;-73
2022/08/22 09:18:02;;;;;;;1.37;1.27;;;;;;;18.66;84.76;96763.00;1489662;95;27540;-74
2022/08/22 09:20:52;;;;;;;1.50;1.40;;;;;;;18.78;84.94;96758.04;1485123;95;25870;-73
2022/08/22 09:23:30;;;;;;;1.20;1.10;;;;;;;18.92;85.00;96760.45;1490112;95;25918;-73
2022/08/22 09:26:08;;;;;;;1.72;1.22;;;;;;;19.14;85.43;96762.80;1526872;87;25778;-73
2022/08/22 09:29:10;;;;;;;1.05;1.02;;;;;;;19.38;85.12;96756.92;1623260;87;25907;-73
2022/08/22 09:31:54;;;;;;;1.27;1.17;;;;;;;19.55;85.07;96761.23;1571050;90;27471;-74
2022/08/22 09:34:34;;;;;;;1.85;1.75;;;;;;;19.71;84.72;96757.27;1494241;95;25839;-73
2022/08/22 09:37:12;;;;;;;2.95;2.08;;;;;;;19.87;84.22;96762.09;1492469;95;25813;-74
2022/08/22 09:40:05;;;;;;;2.22;2.02;;;;;;;19.98;83.82;96760.35;1494504;95;25882;-73
2022/08/22 09:42:45;;;;;;;4.05;2.90;;;;;;;20.07;83.44;96756.43;1511484;94;25770;-73
2022/08/22 09:45:51;;;;;;;4.10;2.80;;;;;;;20.26;83.41;96757.37;1513979;94;27427;-73
2022/08/22 09:48:42;;;;;;;2.72;2.52;;;;;;;20.41;83.10;96765.45;1529495;93;25845;-73
2022/08/22 09:51:33;;;;;;;2.60;2.40;;;;;;;20.64;82.94;96757.56;1529530;93;25874;-73
2022/08/22 09:54:17;;;;;;;3.40;2.87;;;;;;;20.72;82.43;96759.66;1527206;93;26367;-74
2022/08/22 09:57:18;;;;;;;3.02;2.83;;;;;;;20.73;82.41;96762.11;1529663;93;25902;-73
2022/08/22 10:00:17;;;;;;;2.87;2.67;;;;;;;20.74;82.13;96760.19;1529724;93;27497;-73
2022/08/22 10:03:01;;;;;;;4.33;3.25;;;;;;;20.72;82.06;96763.77;1484514;96;25514;-73
2022/08/22 10:05:48;;;;;;;3.33;3.02;;;;;;;20.67;82.34;96760.52;1461854;98;26519;-73
2022/08/22 10:08:31;;;;;;;3.55;3.25;;;;;;;20.61;82.48;96756.21;1446925;97;26938;-73
2022/08/22 10:11:10;;;;;;;3.98;3.52;;;;;;;20.58;81.83;96752.67;1485302;93;26547;-74
2022/08/22 10:14:05;;;;;;;4.35;3.55;;;;;;;20.61;81.62;96755.39;1542677;90;28256;-74
2022/08/22 10:16:50;;;;;;;4.60;4.20;;;;;;;20.61;81.58;96754.84;1539288;93;26464;-74
2022/08/22 10:19:31;;;;;;;5.12;4.35;;;;;;;20.64;81.39;96758.93;1541215;93;26066;-75
2022/08/22 10:22:43;;;;;;;5.33;4.33;;;;;;;20.63;81.38;96761.41;1539771;93;26543;-74
2022/08/22 10:25:37;;;;;;;5.50;5.00;;;;;;;20.62;81.33;96756.48;1569197;91;25820;-73
2022/08/22 10:28:39;;;;;;;6.40;4.72;;;;;;;20.61;81.27;96756.21;1569033;91;28321;-74
2022/08/22 10:31:23;;;;;;;5.53;5.00;;;;;;;20.56;81.35;96752.70;1547469;91;25884;-74
2022/08/22 10:34:08;;;;;;;7.22;5.42;;;;;;;20.56;81.54;96752.14;1544921;92;25775;-74
2022/08/22 10:36:51;;;;;;;6.83;5.40;;;;;;;20.57;81.60;96751.04;1525813;92;25765;-74
2022/08/22 10:39:32;;;;;;;6.05;5.45;;;;;;;20.53;81.76;96753.30;1557942;92;25781;-74
2022/08/22 10:42:25;;;;;;;7.40;5.55;;;;;;;20.52;81.54;96753.03;1544346;92;28319;-74
2022/08/22 10:45:26;;;;;;;7.08;6.35;;;;;;;20.51;81.60;96760.99;1556938;91;25871;-73
2022/08/22 10:48:07;;;;;;;7.12;6.42;;;;;;;20.54;81.65;96761.20;1565032;91;26573;-74
2022/08/22 10:50:44;;;;;;;9.30;7.87;;;;;;;20.57;81.72;96762.55;1619234;87;26296;-74
2022/08/22 10:53:34;;;;;;;8.45;7.65;;;;;;;20.53;81.61;96771.13;1645902;86;25483;-75
2022/08/22 10:56:09;;;;;;;11.03;9.15;;;;;;;20.53;81.57;96759.57;1645793;86;28237;-75
2022/08/22 10:58:56;;;;;;;9.70;8.70;;;;;;;20.60;81.80;96757.88;1644365;86;25818;-73
2022/08/22 11:01:28;;;;;;;10.93;9.83;;;;;;;20.67;81.94;96763.81;1645815;87;25787;-76
2022/08/22 11:04:20;;;;;;;11.12;9.35;;;;;;;20.73;81.90;96762.11;1587303;90;26461;-75
2022/08/22 11:06:51;;;;;;;10.50;9.38;;;;;;;20.81;82.02;96762.01;1587031;89;26594;-74
2022/08/22 11:09:42;;;;;;;11.18;10.08;;;;;;;20.94;82.30;96759.94;1585033;90;33151;-74
2022/08/22 11:12:20;;;;;;;11.40;10.20;;;;;;;21.08;82.26;96758.67;1564589;91;25877;-74
2022/08/22 11:15:07;;;;;;;11.10;9.98;;;;;;;21.24;82.08;96729.14;1538433;93;25874;-75
2022/08/22 11:17:56;;;;;;;11.30;10.20;;;;;;;21.24;82.08;96729.14;1609075;88;26474;-75
2022/08/22 11:20:33;;;;;;;12.05;10.88;;;;;;;21.50;81.58;96753.72;1617578;88;26092;-74
2022/08/22 11:23:45;;;;;;;12.45;11.15;;;;;;;21.58;81.50;96757.19;1600535;88;27557;-74
2022/08/22 11:27:04;;;;;;;12.68;10.72;;;;;;;21.70;81.29;96747.94;1600839;88;25579;-74
2022/08/22 11:29:42;;;;;;;13.18;10.78;;;;;;;21.75;81.10;96745.66;1600744;88;25772;-75
2022/08/22 11:32:40;;;;;;;11.88;10.72;;;;;;;21.71;80.67;96742.70;1597733;89;25765;-75
2022/08/22 11:35:21;;;;;;;12.35;11.05;;;;;;;21.71;80.67;96742.70;1599789;89;25856;-74
2022/08/22 11:38:26;;;;;;;12.15;10.85;;;;;;;21.62;80.28;96720.31;1595071;89;27461;-74
2022/08/22 11:41:13;;;;;;;19.95;12.40;;;;;;;21.76;80.07;96735.74;1581244;90;25995;-75
2022/08/22 11:44:00;;;;;;;13.28;11.57;;;;;;;21.64;79.51;96720.84;1576642;90;25972;-74
2022/08/22 11:46:40;;;;;;;13.50;12.18;;;;;;;21.67;79.54;96737.55;1562050;91;25787;-74
2022/08/22 11:49:53;;;;;;;14.90;12.63;;;;;;;21.67;79.54;96737.55;1570365;90;25930;-76
2022/08/22 11:52:28;;;;;;;;;;;;;;;21.66;79.78;96744.15;1587188;90;27390;-76
2022/08/22 11:55:27;;;;;;;60.08;14.80;;;;;;;21.54;78.94;96747.91;1584613;90;25307;-74
2022/08/22 11:58:13;;;;;;;18.35;14.33;;;;;;;21.47;79.49;96747.47;1584526;90;25786;-76
2022/08/22 12:01:02;;;;;;;17.27;14.35;;;;;;;21.22;80.25;96719.00;1607784;86;26328;-75
2022/08/22 12:03:53;;;;;;;14.70;12.60;;;;;;;21.22;80.25;96719.00;1621329;88;25526;-75
2022/08/22 12:06:59;;;;;;;14.23;12.73;;;;;;;21.30;80.22;96740.29;1590618;88;27374;-76
2022/08/22 12:09:36;;;;;;;18.35;14.05;;;;;;;21.27;80.15;96739.50;1590600;88;25849;-77
2022/08/22 12:12:32;;;;;;;17.05;15.25;;;;;;;21.29;80.20;96742.77;1588003;88;25799;-78
2022/08/22 12:15:07;;;;;;;15.25;13.65;;;;;;;21.35;80.10;96745.72;1595536;87;25847;-76
2022/08/22 12:18:11;;;;;;;16.12;13.50;;;;;;;21.37;79.93;96738.02;1583617;89;25670;-76
2022/08/22 12:21:12;;;;;;;15.20;13.00;;;;;;;21.35;79.82;96736.11;1585381;89;27424;-76
2022/08/22 12:24:23;;;;;;;14.58;13.18;;;;;;;21.34;79.94;96733.11;1612131;88;25785;-77
2022/08/22 12:26:58;;;;;;;16.02;14.33;;;;;;;21.37;80.03;96732.52;1599924;88;25845;-76
2022/08/22 12:29:47;;;;;;;14.95;13.38;;;;;;;21.39;80.08;96727.52;1603519;88;25770;-76
2022/08/22 12:32:36;;;;;;;14.87;13.03;;;;;;;21.38;79.95;96725.89;1568534;91;25973;-78
2022/08/22 12:35:38;;;;;;;15.35;13.20;;;;;;;21.38;80.01;96723.14;1567385;90;27382;-77
2022/08/22 12:38:45;;;;;;;15.80;13.22;;;;;;;21.41;79.99;96723.93;1481427;95;25991;-76
2022/08/22 12:41:23;;;;;;;14.78;13.05;;;;;;;21.44;79.75;96724.72;1504624;94;25770;-77
2022/08/22 12:44:26;;;;;;;16.73;14.95;;;;;;;21.47;79.65;96725.50;1503986;93;26598;-76
2022/08/22 12:47:07;;;;;;;16.30;14.05;;;;;;;21.49;79.47;96730.94;1486541;95;25904;-76
2022/08/22 12:50:21;;;;;;;15.23;13.75;;;;;;;21.50;79.34;96729.00;1469799;97;27288;-77
2022/08/22 12:53:02;;;;;;;16.70;15.03;;;;;;;21.48;79.24;96721.65;1469841;97;26087;-76
2022/08/22 12:55:54;;;;;;;17.60;15.48;;;;;;;21.51;79.14;96722.41;1497473;94;25995;-76
2022/08/22 12:58:38;;;;;;;16.83;15.13;;;;;;;21.54;78.98;96730.05;1496177;95;25867;-76
2022/08/22 13:01:08;;;;;;;18.20;15.35;;;;;;;21.35;78.72;96716.34;1496890;94;25988;-77